createdAt,value
2022-10-20T00:00:08.767Z,-23533.75
2022-10-20T00:02:11.500Z,-23530.59
2022-10-20T00:04:14.261Z,-23526.78
2022-10-20T00:06:19.475Z,-23527.75
2022-10-20T00:08:23.847Z,-23529.97
2022-10-20T00:10:26.448Z,-23526.94
2022-10-20T00:12:29.015Z,-23528.84
2022-10-20T00:14:31.654Z,-23529.66
2022-10-20T00:16:38.139Z,-23526.47
2022-10-20T00:18:41.078Z,-23530.44
2022-10-20T00:20:43.723Z,-23524.91
2022-10-20T00:22:46.503Z,-23524.25
2022-10-20T00:24:52.344Z,-23523.31
2022-10-20T00:26:54.960Z,-23520.94
2022-10-20T00:28:58.027Z,-23521.09
2022-10-20T00:31:01.115Z,-23521.41
2022-10-20T00:33:03.939Z,-23521.72
2022-10-20T00:35:07.236Z,-23520.63
2022-10-20T00:37:09.877Z,-23521.09
2022-10-20T00:39:12.706Z,-23520.78
2022-10-20T00:41:19.141Z,-23519.81
2022-10-20T00:43:23.184Z,-23518.56
2022-10-20T00:45:26.566Z,-23518.56
2022-10-20T00:47:40.101Z,-23518.41
2022-10-20T00:49:43.025Z,-23516.66
2022-10-20T00:51:45.791Z,-23518.25
2022-10-20T00:53:53.104Z,-23517.47
2022-10-20T00:55:58.751Z,-23516.97
2022-10-20T00:58:03.615Z,-23517.13
2022-10-20T01:00:08.831Z,-23520.16
2022-10-20T01:02:12.019Z,-23521.09
2022-10-20T01:04:16.075Z,-23523.16
2022-10-20T01:06:21.270Z,-23526.47
2022-10-20T01:08:23.868Z,-23523.31
2022-10-20T01:10:31.259Z,-23521.72
2022-10-20T01:12:40.139Z,-23519.66
2022-10-20T01:14:51.390Z,-23520.47
2022-10-20T01:17:03.243Z,-23519.50
2022-10-20T01:19:33.844Z,-23519.50
2022-10-20T01:22:05.209Z,-23523.16
2022-10-20T01:24:30.720Z,-23521.25
2022-10-20T01:26:58.820Z,-23518.56
2022-10-20T01:29:09.849Z,-23519.81
2022-10-20T01:31:22.834Z,-23522.38
2022-10-20T01:33:33.938Z,-23520.31
2022-10-20T01:35:48.686Z,-23517.94
2022-10-20T01:37:55.420Z,-23520.00
2022-10-20T01:40:03.549Z,-23517.28
2022-10-20T01:42:10.203Z,-23516.97
2022-10-20T01:44:15.542Z,-23517.63
2022-10-20T01:46:20.345Z,-23514.75
2022-10-20T01:48:26.577Z,-23516.97
2022-10-20T01:50:30.502Z,-23511.28
2022-10-20T01:52:33.627Z,-23508.59
2022-10-20T01:54:36.492Z,-23507.78
2022-10-20T01:56:43.431Z,-23508.59
2022-10-20T01:59:06.723Z,-23505.91
2022-10-20T02:01:18.115Z,-23503.50
2022-10-20T02:03:40.631Z,-23505.25
2022-10-20T02:05:54.323Z,-23506.53
2022-10-20T02:08:06.406Z,-23501.78
2022-10-20T02:10:18.270Z,-23504.63
2022-10-20T02:12:23.713Z,-23506.53
2022-10-20T02:14:26.868Z,-23502.41
2022-10-20T02:16:34.475Z,-23505.72
2022-10-20T02:18:42.896Z,-23501.47
2022-10-20T02:20:49.134Z,-23499.88
2022-10-20T02:22:52.096Z,-23499.56
2022-10-20T02:24:54.770Z,-23496.38
2022-10-20T02:27:02.147Z,-23496.53
2022-10-20T02:29:13.487Z,-23496.53
2022-10-20T02:31:17.970Z,-23501.78
2022-10-20T02:33:23.332Z,-23503.84
2022-10-20T02:35:31.224Z,-23504.31
2022-10-20T02:37:34.346Z,-23506.22
2022-10-20T02:39:37.475Z,-23504.00
2022-10-20T02:41:40.078Z,-23499.88
2022-10-20T02:43:42.695Z,-23503.50
2022-10-20T02:45:45.371Z,-23499.88
2022-10-20T02:47:48.088Z,-23501.78
2022-10-20T02:49:52.094Z,-23503.84
2022-10-20T02:51:54.763Z,-23506.38
2022-10-20T02:53:57.364Z,-23503.69
2022-10-20T02:56:00.089Z,-23505.91
2022-10-20T02:58:02.626Z,-23503.84
2022-10-20T03:00:07.163Z,-23496.72
2022-10-20T03:02:09.768Z,-23496.72
2022-10-20T03:04:12.929Z,-23500.34
2022-10-20T03:06:18.493Z,-23502.72
2022-10-20T03:08:21.361Z,-23499.25
2022-10-20T03:10:23.988Z,-23497.03
2022-10-20T03:12:28.917Z,-23497.34
2022-10-20T03:14:34.180Z,-23496.72
2022-10-20T03:16:36.816Z,-23496.38
2022-10-20T03:18:39.450Z,-23497.81
2022-10-20T03:20:42.102Z,-23500.50
2022-10-20T03:22:46.107Z,-23497.50
2022-10-20T03:24:48.766Z,-23498.59
2022-10-20T03:26:51.409Z,-23499.25
2022-10-20T03:28:54.130Z,-23500.50
2022-10-20T03:30:58.269Z,-23498.94
2022-10-20T03:33:00.983Z,-23500.97
2022-10-20T03:35:03.618Z,-23500.81
2022-10-20T03:37:06.316Z,-23502.09
2022-10-20T03:39:10.376Z,-23501.78
2022-10-20T03:41:13.816Z,-23499.72
2022-10-20T03:43:16.436Z,-23505.25
2022-10-20T03:45:19.051Z,-23499.72
2022-10-20T03:47:21.778Z,-23501.78
2022-10-20T03:49:24.384Z,-23502.72
2022-10-20T03:51:27.104Z,-23503.03
2022-10-20T03:53:30.435Z,-23508.75
2022-10-20T03:55:34.399Z,-23505.91
2022-10-20T03:57:37.530Z,-23503.34
2022-10-20T03:59:40.772Z,-23506.53
2022-10-20T04:01:46.281Z,-23508.44
2022-10-20T04:03:49.003Z,-23505.56
2022-10-20T04:05:51.675Z,-23499.88
2022-10-20T04:07:54.292Z,-23504.63
2022-10-20T04:09:57.111Z,-23508.44
2022-10-20T04:12:01.142Z,-23507.00
2022-10-20T04:14:03.937Z,-23507.63
2022-10-20T04:16:07.121Z,-23509.53
2022-10-20T04:18:09.828Z,-23510.00
2022-10-20T04:20:12.799Z,-23506.69
2022-10-20T04:22:15.484Z,-23508.75
2022-10-20T04:24:18.264Z,-23505.72
2022-10-20T04:26:20.932Z,-23509.38
2022-10-20T04:28:24.948Z,-23505.25
2022-10-20T04:30:27.793Z,-23505.91
2022-10-20T04:32:30.385Z,-23506.22
2022-10-20T04:34:32.984Z,-23507.47
2022-10-20T04:36:35.600Z,-23506.22
2022-10-20T04:38:38.342Z,-23503.69
2022-10-20T04:40:40.911Z,-23504.31
2022-10-20T04:42:43.531Z,-23508.09
2022-10-20T04:44:47.814Z,-23507.47
2022-10-20T04:46:50.505Z,-23506.38
2022-10-20T04:48:53.331Z,-23508.75
2022-10-20T04:51:06.336Z,-23504.47
2022-10-20T04:53:09.718Z,-23502.88
2022-10-20T04:55:12.353Z,-23505.91
2022-10-20T04:57:14.993Z,-23509.22
2022-10-20T04:59:17.639Z,-23507.47
2022-10-20T05:01:22.984Z,-23506.84
2022-10-20T05:03:25.761Z,-23506.84
2022-10-20T05:05:28.423Z,-23504.00
2022-10-20T05:07:31.392Z,-23504.63
2022-10-20T05:09:34.051Z,-23510.81
2022-10-20T05:11:37.793Z,-23503.69
2022-10-20T05:13:40.859Z,-23506.53
2022-10-20T05:15:43.514Z,-23507.16
2022-10-20T05:17:47.511Z,-23509.38
2022-10-20T05:19:50.075Z,-23504.94
2022-10-20T05:21:52.715Z,-23500.81
2022-10-20T05:23:59.626Z,-23503.03
2022-10-20T05:26:03.396Z,-23509.22
2022-10-20T05:28:06.591Z,-23504.47
2022-10-20T05:30:10.507Z,-23503.03
2022-10-20T05:32:13.266Z,-23505.56
2022-10-20T05:34:17.651Z,-23504.78
2022-10-20T05:36:22.333Z,-23499.25
2022-10-20T05:38:25.182Z,-23502.09
2022-10-20T05:40:27.811Z,-23503.03
2022-10-20T05:42:30.633Z,-23503.84
2022-10-20T05:44:33.236Z,-23505.25
2022-10-20T05:46:38.284Z,-23508.59
2022-10-20T05:48:43.035Z,-23503.34
2022-10-20T05:50:47.278Z,-23504.47
2022-10-20T05:52:49.921Z,-23504.16
2022-10-20T05:54:52.603Z,-23503.69
2022-10-20T05:56:55.285Z,-23507.78
2022-10-20T05:58:58.988Z,-23506.84
2022-10-20T06:01:09.705Z,-23507.78
2022-10-20T06:03:13.960Z,-23508.09
2022-10-20T06:05:20.006Z,-23504.63
2022-10-20T06:07:24.003Z,-23506.38
2022-10-20T06:09:26.654Z,-23509.22
2022-10-20T06:11:29.498Z,-23506.22
2022-10-20T06:13:33.135Z,-23507.78
2022-10-20T06:15:35.779Z,-23512.53
2022-10-20T06:17:38.483Z,-23512.06
2022-10-20T06:19:41.061Z,-23509.53
2022-10-20T06:21:43.726Z,-23504.78
2022-10-20T06:23:47.924Z,-23508.75
2022-10-20T06:25:50.538Z,-23508.44
2022-10-20T06:27:53.200Z,-23509.69
2022-10-20T06:29:55.861Z,-23510.16
2022-10-20T06:31:58.585Z,-23513.19
2022-10-20T06:34:01.847Z,-23514.13
2022-10-20T06:36:04.863Z,-23514.91
2022-10-20T06:38:07.516Z,-23516.03
2022-10-20T06:40:12.315Z,-23512.53
2022-10-20T06:42:14.984Z,-23520.78
2022-10-20T06:44:18.026Z,-23515.56
2022-10-20T06:46:20.707Z,-23521.41
2022-10-20T06:48:23.447Z,-23518.25
2022-10-20T06:50:26.221Z,-23513.34
2022-10-20T06:52:28.839Z,-23513.50
2022-10-20T06:54:31.618Z,-23528.06
2022-10-20T06:56:37.213Z,-23524.72
2022-10-20T06:58:40.976Z,-23524.91
2022-10-20T07:00:43.606Z,-23532.50
2022-10-20T07:02:46.238Z,-23533.44
2022-10-20T07:04:50.711Z,-23531.22
2022-10-20T07:06:53.354Z,-23533.75
2022-10-20T07:08:57.267Z,-23535.50
2022-10-20T07:11:04.175Z,-23533.44
2022-10-20T07:13:08.163Z,-23536.28
2022-10-20T07:15:11.591Z,-23542.00
2022-10-20T07:17:14.241Z,-23538.50
2022-10-20T07:19:16.909Z,-23536.94
2022-10-20T07:21:21.484Z,-23542.94
2022-10-20T07:23:24.388Z,-23539.78
2022-10-20T07:25:27.001Z,-23538.50
2022-10-20T07:27:29.684Z,-23549.91
2022-10-20T07:31:38.792Z,-23549.28
2022-10-20T07:33:41.816Z,-23547.22
2022-10-20T07:35:44.431Z,-23551.16
2022-10-20T07:37:47.093Z,-23538.19
2022-10-20T07:39:49.777Z,-23550.53
2022-10-20T07:41:52.590Z,-23551.16
2022-10-20T07:43:56.137Z,-23552.44
2022-10-20T07:46:00.128Z,-23569.34
2022-10-20T07:48:04.237Z,-23584.84
2022-10-20T07:50:07.895Z,-23578.38
2022-10-20T07:52:10.671Z,-23591.19
2022-10-20T07:54:13.276Z,-23588.50
2022-10-20T07:56:16.462Z,-23597.00
2022-10-20T07:58:19.071Z,-23595.59
2022-10-20T08:00:21.847Z,-23607.44
2022-10-20T08:02:25.908Z,-23610.75
2022-10-20T08:04:28.885Z,-23614.22
2022-10-20T08:06:32.123Z,-23607.75
2022-10-20T08:08:35.190Z,-23618.19
2022-10-20T08:10:37.875Z,-23625.59
2022-10-20T08:12:40.549Z,-23621.66
2022-10-20T08:14:44.620Z,-23620.41
2022-10-20T08:16:50.973Z,-23635.06
2022-10-20T08:21:14.441Z,-23625.13
2022-10-20T08:23:17.468Z,-23644.69
2022-10-20T08:25:20.273Z,-23639.19
2022-10-20T08:27:22.885Z,-23625.13
2022-10-20T08:29:25.514Z,-23627.03
2022-10-20T08:31:28.087Z,-23641.53
2022-10-20T08:33:30.825Z,-23643.44
2022-10-20T08:35:34.774Z,-23645.78
2022-10-20T08:37:38.314Z,-23669.47
2022-10-20T08:39:41.168Z,-23674.97
2022-10-20T08:42:06.940Z,-23694.19
2022-10-20T08:44:09.467Z,-23695.44
2022-10-20T08:46:15.407Z,-23644.06
2022-10-20T08:48:21.078Z,-23680.16
2022-10-20T08:50:27.548Z,-23724.09
2022-10-20T08:52:31.558Z,-23705.53
2022-10-20T08:54:35.321Z,-23745.19
2022-10-20T08:56:38.051Z,-23687.88
2022-10-20T08:58:44.259Z,-23734.66
2022-10-20T09:00:48.166Z,-23704.28
2022-10-20T09:02:52.304Z,-23690.09
2022-10-20T09:04:59.477Z,-23686.78
2022-10-20T09:07:06.790Z,-23680.00
2022-10-20T09:09:15.501Z,-23710.41
2022-10-20T09:11:22.185Z,-23746.28
2022-10-20T09:13:27.326Z,-23722.38
2022-10-20T09:15:30.446Z,-23754.31
2022-10-20T09:17:33.554Z,-23742.66
2022-10-20T09:19:37.338Z,-23777.25
2022-10-20T09:21:41.314Z,-23744.56
2022-10-20T09:23:46.161Z,-23737.63
2022-10-20T09:25:52.298Z,-23724.44
2022-10-20T09:27:56.468Z,-23695.78
2022-10-20T09:29:59.086Z,-23674.81
2022-10-20T09:32:15.389Z,-23690.72
2022-10-20T09:34:26.713Z,-23686.63
2022-10-20T09:36:34.559Z,-23647.84
2022-10-20T09:38:37.789Z,-23663.94
2022-10-20T09:40:45.418Z,-23651.94
2022-10-20T09:42:53.003Z,-23651.31
2022-10-20T09:44:59.287Z,-23629.88
2022-10-20T09:47:03.224Z,-23639.19
2022-10-20T09:49:08.165Z,-23633.66
2022-10-20T09:51:16.142Z,-23626.25
2022-10-20T09:53:21.470Z,-23635.22
2022-10-20T09:55:30.809Z,-23634.59
2022-10-20T09:57:33.506Z,-23645.97
2022-10-20T09:59:42.077Z,-23644.06
2022-10-20T10:01:54.638Z,-23628.91
2022-10-20T10:04:01.750Z,-23637.44
2022-10-20T10:06:21.486Z,-23639.97
2022-10-20T10:08:26.148Z,-23654.47
2022-10-20T10:10:31.460Z,-23647.53
2022-10-20T10:12:35.875Z,-23639.97
2022-10-20T10:14:52.128Z,-23659.53
2022-10-20T10:16:54.801Z,-23664.41
2022-10-20T10:19:01.778Z,-23664.09
2022-10-20T10:21:06.801Z,-23652.59
2022-10-20T10:23:21.403Z,-23649.59
2022-10-20T10:25:28.180Z,-23667.09
2022-10-20T10:27:33.425Z,-23651.31
2022-10-20T10:29:37.134Z,-23640.13
2022-10-20T10:31:51.477Z,-23648.63
2022-10-20T10:34:03.466Z,-23669.78
2022-10-20T10:36:13.000Z,-23667.09
2022-10-20T10:38:15.746Z,-23663.00
2022-10-20T10:40:20.225Z,-23661.09
2022-10-20T10:42:36.901Z,-23668.03
2022-10-20T10:44:50.380Z,-23668.66
2022-10-20T10:47:02.290Z,-23660.16
2022-10-20T10:49:24.302Z,-23661.09
2022-10-20T10:51:38.450Z,-23662.34
2022-10-20T10:53:53.607Z,-23674.34
2022-10-20T10:56:05.191Z,-23675.75
2022-10-20T10:58:19.175Z,-23683.63
2022-10-20T11:00:34.039Z,-23668.97
2022-10-20T11:03:01.572Z,-23668.03
2022-10-20T11:05:25.622Z,-23675.44
2022-10-20T11:07:39.639Z,-23668.66
2022-10-20T11:10:00.742Z,-23664.25
2022-10-20T11:12:33.638Z,-23667.41
2022-10-20T11:14:47.499Z,-23669.47
2022-10-20T11:17:04.755Z,-23665.81
2022-10-20T11:19:32.338Z,-23669.94
2022-10-20T11:21:47.229Z,-23677.50
2022-10-20T11:24:05.197Z,-23681.91
2022-10-20T11:26:19.653Z,-23675.75
2022-10-20T11:28:31.113Z,-23677.19
2022-10-20T11:30:35.154Z,-23672.91
2022-10-20T11:32:43.715Z,-23682.22
2022-10-20T11:34:57.579Z,-23688.53
2022-10-20T11:37:07.265Z,-23698.59
2022-10-20T11:39:18.403Z,-23699.88
2022-10-20T11:41:25.720Z,-23692.78
2022-10-20T11:43:33.760Z,-23686.78
2022-10-20T11:45:43.330Z,-23694.19
2022-10-20T11:47:47.364Z,-23686.78
2022-10-20T11:49:51.682Z,-23688.84
2022-10-20T11:52:25.988Z,-23683.94
2022-10-20T11:55:00.320Z,-23689.00
2022-10-20T11:57:15.671Z,-23686.31
2022-10-20T11:59:54.271Z,-23697.34
2022-10-20T12:02:14.199Z,-23691.34
2022-10-20T12:04:33.863Z,-23697.03
2022-10-20T12:06:55.987Z,-23682.38
2022-10-20T12:09:16.746Z,-23686.63
2022-10-20T12:11:28.210Z,-23690.09
2022-10-20T12:13:42.056Z,-23688.69
2022-10-20T12:15:49.799Z,-23692.31
2022-10-20T12:17:53.371Z,-23685.69
2022-10-20T12:20:43.571Z,-23682.53
2022-10-20T12:22:50.074Z,-23685.69
2022-10-20T12:25:19.788Z,-23687.25
2022-10-20T12:27:24.080Z,-23692.31
2022-10-20T12:29:58.053Z,-23684.91
2022-10-20T12:32:46.219Z,-23686.31
2022-10-20T12:34:50.587Z,-23696.09
2022-10-20T12:37:08.376Z,-23693.25
2022-10-20T12:39:19.064Z,-23692.94
2022-10-20T12:41:29.261Z,-23699.25
2022-10-20T12:43:38.448Z,-23687.09
2022-10-20T12:45:44.313Z,-23698.28
2022-10-20T12:47:51.338Z,-23684.41
2022-10-20T12:49:57.506Z,-23684.75
2022-10-20T12:52:01.134Z,-23683.78
2022-10-20T12:54:09.956Z,-23683.94
2022-10-20T12:56:21.913Z,-23686.00
2022-10-20T12:58:29.753Z,-23683.94
2022-10-20T13:01:06.098Z,-23681.28
2022-10-20T13:03:38.028Z,-23667.56
2022-10-20T13:05:47.449Z,-23663.63
2022-10-20T13:08:17.769Z,-23675.91
2022-10-20T13:10:30.450Z,-23681.13
2022-10-20T13:12:40.940Z,-23671.81
2022-10-20T13:14:57.457Z,-23661.25
2022-10-20T13:17:05.223Z,-23667.41
2022-10-20T13:19:09.371Z,-23664.56
2022-10-20T13:21:23.578Z,-23662.03
2022-10-20T13:23:31.156Z,-23667.09
2022-10-20T13:25:37.718Z,-23663.31
2022-10-20T13:27:41.700Z,-23654.00
2022-10-20T13:29:47.662Z,-23656.38
2022-10-20T13:32:03.826Z,-23667.09
2022-10-20T13:34:14.750Z,-23662.03
2022-10-20T13:36:24.695Z,-23666.16
2022-10-20T13:38:36.878Z,-23662.22
2022-10-20T13:40:50.932Z,-23672.13
2022-10-20T13:43:09.133Z,-23667.56
2022-10-20T13:45:19.680Z,-23680.16
2022-10-20T13:47:47.272Z,-23678.44
2022-10-20T13:50:00.523Z,-23675.59
2022-10-20T13:52:11.405Z,-23671.03
2022-10-20T13:54:21.774Z,-23677.50
2022-10-20T13:56:36.220Z,-23682.38
2022-10-20T13:58:40.677Z,-23674.34
2022-10-20T14:00:57.272Z,-23675.44
2022-10-20T14:03:02.293Z,-23676.84
2022-10-20T14:05:11.801Z,-23683.47
2022-10-20T14:07:17.156Z,-23670.88
2022-10-20T14:09:23.115Z,-23672.75
2022-10-20T14:11:26.577Z,-23675.91
2022-10-20T14:13:32.012Z,-23673.09
2022-10-20T14:15:38.532Z,-23675.13
2022-10-20T14:17:42.005Z,-23682.84
2022-10-20T14:19:46.835Z,-23678.91
2022-10-20T14:21:51.770Z,-23677.19
2022-10-20T14:23:54.388Z,-23668.19
2022-10-20T14:25:57.900Z,-23671.50
2022-10-20T14:28:05.196Z,-23665.81
2022-10-20T14:30:16.672Z,-23665.50
2022-10-20T14:32:23.080Z,-23667.88
2022-10-20T14:34:28.390Z,-23666.63
2022-10-20T14:36:31.927Z,-23667.41
2022-10-20T14:38:37.899Z,-23668.66
2022-10-20T14:40:40.662Z,-23665.81
2022-10-20T14:42:45.848Z,-23665.34
2022-10-20T14:44:50.167Z,-23671.03
2022-10-20T14:46:53.441Z,-23668.81
2022-10-20T14:48:59.519Z,-23664.41
2022-10-20T14:51:02.843Z,-23667.09
2022-10-20T14:53:33.813Z,-23665.03
2022-10-20T14:55:37.944Z,-23679.69
2022-10-20T14:57:45.863Z,-23678.75
2022-10-20T14:59:53.780Z,-23665.81
2022-10-20T15:02:09.915Z,-23666.16
2022-10-20T15:04:24.135Z,-23671.50
2022-10-20T15:06:26.788Z,-23679.38
2022-10-20T15:08:29.587Z,-23673.41
2022-10-20T15:10:32.315Z,-23680.00
2022-10-20T15:12:41.557Z,-23675.44
2022-10-20T15:14:46.867Z,-23662.69
2022-10-20T15:16:49.956Z,-23657.16
2022-10-20T15:19:26.817Z,-23657.00
2022-10-20T15:21:29.417Z,-23654.78
2022-10-20T15:23:32.354Z,-23656.06
2022-10-20T15:25:46.533Z,-23656.06
2022-10-20T15:27:49.295Z,-23653.38
2022-10-20T15:29:52.966Z,-23654.16
2022-10-20T15:31:56.196Z,-23652.91
2022-10-20T15:33:59.445Z,-23651.63
2022-10-20T15:36:03.432Z,-23653.84
2022-10-20T15:38:06.047Z,-23653.38
2022-10-20T15:40:09.511Z,-23653.53
2022-10-20T15:42:12.647Z,-23657.00
2022-10-20T15:44:17.072Z,-23657.00
2022-10-20T15:46:20.679Z,-23651.94
2022-10-20T15:48:25.833Z,-23648.47
2022-10-20T15:50:28.593Z,-23653.53
2022-10-20T15:52:32.600Z,-23653.38
2022-10-20T15:54:35.240Z,-23654.16
2022-10-20T15:56:37.886Z,-23651.47
2022-10-20T15:58:40.484Z,-23649.25
2022-10-20T16:00:43.167Z,-23649.44
2022-10-20T16:02:46.043Z,-23648.16
2022-10-20T16:04:48.657Z,-23650.53
2022-10-20T16:06:57.550Z,-23649.13
2022-10-20T16:09:04.890Z,-23648.16
2022-10-20T16:11:08.449Z,-23646.13
2022-10-20T16:13:11.966Z,-23648.47
2022-10-20T16:15:14.636Z,-23648.63
2022-10-20T16:17:17.217Z,-23653.22
2022-10-20T16:19:20.335Z,-23648.16
2022-10-20T16:21:22.952Z,-23645.31
2022-10-20T16:23:25.733Z,-23643.75
2022-10-20T16:25:29.727Z,-23641.53
2022-10-20T16:27:34.074Z,-23638.53
2022-10-20T16:29:37.019Z,-23636.81
2022-10-20T16:31:39.613Z,-23637.59
2022-10-20T16:33:42.367Z,-23645.66
2022-10-20T16:35:45.680Z,-23650.53
2022-10-20T16:37:48.288Z,-23640.28
2022-10-20T16:39:50.884Z,-23638.88
2022-10-20T16:41:54.837Z,-23637.91
2022-10-20T16:44:00.855Z,-23632.38
2022-10-20T16:46:05.775Z,-23631.75
2022-10-20T16:48:08.367Z,-23635.22
2022-10-20T16:50:11.037Z,-23633.97
2022-10-20T16:52:13.783Z,-23635.38
2022-10-20T16:54:17.038Z,-23634.59
2022-10-20T16:56:20.994Z,-23636.19
2022-10-20T16:58:25.567Z,-23634.91
2022-10-20T17:00:28.201Z,-23637.91
2022-10-20T17:02:30.862Z,-23643.44
2022-10-20T17:04:33.526Z,-23642.81
2022-10-20T17:06:36.141Z,-23639.81
2022-10-20T17:08:39.515Z,-23638.88
2022-10-20T17:10:42.748Z,-23637.91
2022-10-20T17:14:52.036Z,-23641.69
2022-10-20T17:16:54.629Z,-23635.22
2022-10-20T17:18:58.193Z,-23635.88
2022-10-20T17:21:00.962Z,-23637.75
2022-10-20T17:23:03.563Z,-23630.50
2022-10-20T17:25:07.297Z,-23630.50
2022-10-20T17:27:10.273Z,-23630.50
2022-10-20T17:29:12.917Z,-23643.44
2022-10-20T17:31:18.644Z,-23640.91
2022-10-20T17:33:21.544Z,-23636.66
2022-10-20T17:35:24.195Z,-23634.59
2022-10-20T17:37:26.813Z,-23632.69
2022-10-20T17:39:29.417Z,-23636.50
2022-10-20T17:41:32.069Z,-23633.03
2022-10-20T17:43:35.175Z,-23637.44
2022-10-20T17:45:38.394Z,-23634.91
2022-10-20T17:47:42.378Z,-23638.69
2022-10-20T17:49:45.080Z,-23631.91
2022-10-20T17:51:47.864Z,-23632.56
2022-10-20T17:53:52.211Z,-23632.06
2022-10-20T17:55:54.842Z,-23632.06
2022-10-20T17:57:57.492Z,-23632.88
2022-10-20T18:00:02.813Z,-23628.75
2022-10-20T18:02:10.152Z,-23628.91
2022-10-20T18:04:15.894Z,-23629.25
2022-10-20T18:06:21.535Z,-23626.41
2022-10-20T18:08:24.224Z,-23625.13
2022-10-20T18:10:26.966Z,-23623.56
2022-10-20T18:12:29.559Z,-23624.50
2022-10-20T18:14:32.216Z,-23623.22
2022-10-20T18:16:36.711Z,-23621.97
2022-10-20T18:18:39.828Z,-23622.91
2022-10-20T18:20:43.886Z,-23623.88
2022-10-20T18:22:46.475Z,-23624.19
2022-10-20T18:24:49.939Z,-23625.44
2022-10-20T18:26:52.552Z,-23623.88
2022-10-20T18:28:55.275Z,-23626.41
2022-10-20T18:30:57.880Z,-23626.72
2022-10-20T18:33:00.476Z,-23623.88
2022-10-20T18:35:03.137Z,-23622.59
2022-10-20T18:37:07.072Z,-23624.19
2022-10-20T18:39:11.160Z,-23620.56
2022-10-20T18:41:15.967Z,-23620.88
2022-10-20T18:43:18.564Z,-23621.81
2022-10-20T18:45:23.821Z,-23621.03
2022-10-20T18:47:28.611Z,-23618.50
2022-10-20T18:49:31.236Z,-23619.44
2022-10-20T18:51:34.478Z,-23619.28
2022-10-20T18:55:43.099Z,-23616.59
2022-10-20T18:57:45.661Z,-23614.06
2022-10-20T18:59:50.385Z,-23615.34
2022-10-20T19:01:52.980Z,-23616.44
2022-10-20T19:03:57.254Z,-23617.53
2022-10-20T19:06:02.882Z,-23620.88
2022-10-20T19:08:06.010Z,-23622.75
2022-10-20T19:10:10.306Z,-23621.34
2022-10-20T19:12:12.990Z,-23620.09
2022-10-20T19:14:16.303Z,-23621.03
2022-10-20T19:16:20.899Z,-23621.34
2022-10-20T19:18:24.614Z,-23622.28
2022-10-20T19:20:31.078Z,-23621.50
2022-10-20T19:22:33.677Z,-23620.56
2022-10-20T19:24:39.753Z,-23621.19
2022-10-20T19:26:52.778Z,-23622.28
2022-10-20T19:29:07.924Z,-23623.06
2022-10-20T19:31:20.979Z,-23623.72
2022-10-20T19:33:24.616Z,-23623.22
2022-10-20T19:35:27.269Z,-23626.41
2022-10-20T19:37:29.891Z,-23616.44
2022-10-20T19:39:34.944Z,-23618.50
2022-10-20T19:41:38.146Z,-23618.50
2022-10-20T19:43:42.118Z,-23625.75
2022-10-20T19:45:47.750Z,-23614.38
2022-10-20T19:47:52.462Z,-23614.22
2022-10-20T19:49:55.053Z,-23612.19
2022-10-20T19:51:57.932Z,-23612.19
2022-10-20T19:54:00.636Z,-23613.44
2022-10-20T19:56:03.302Z,-23614.06
2022-10-20T19:58:06.952Z,-23613.44
2022-10-20T20:00:12.071Z,-23614.06
2022-10-20T20:02:14.712Z,-23611.38
2022-10-20T20:04:17.605Z,-23610.91
2022-10-20T20:06:21.937Z,-23612.19
2022-10-20T20:08:24.553Z,-23619.44
2022-10-20T20:10:27.233Z,-23617.69
2022-10-20T20:12:29.823Z,-23622.44
2022-10-20T20:14:32.486Z,-23618.81
2022-10-20T20:16:36.675Z,-23616.28
2022-10-20T20:18:39.323Z,-23620.56
2022-10-20T20:20:42.099Z,-23621.19
2022-10-20T20:22:44.782Z,-23617.06
2022-10-20T20:24:47.399Z,-23612.66
2022-10-20T20:26:50.670Z,-23612.19
2022-10-20T20:28:54.280Z,-23608.88
2022-10-20T20:31:00.914Z,-23613.13
2022-10-20T20:33:05.653Z,-23612.19
2022-10-20T20:35:09.416Z,-23620.09
2022-10-20T20:37:12.019Z,-23618.19
2022-10-20T20:39:14.675Z,-23617.38
2022-10-20T20:41:19.160Z,-23611.53
2022-10-20T20:43:21.785Z,-23611.88
2022-10-20T20:45:24.407Z,-23612.19
2022-10-20T20:47:27.375Z,-23610.75
2022-10-20T20:49:31.336Z,-23614.88
2022-10-20T20:51:34.317Z,-23612.81
2022-10-20T20:53:38.057Z,-23611.22
2022-10-20T20:55:40.652Z,-23608.56
2022-10-20T20:57:44.357Z,-23603.19
2022-10-20T20:59:46.971Z,-23602.06
2022-10-20T21:01:49.597Z,-23602.06
2022-10-20T21:03:54.378Z,-23603.34
2022-10-20T21:05:58.441Z,-23601.75
2022-10-20T21:08:01.013Z,-23601.59
2022-10-20T21:10:03.920Z,-23607.13
2022-10-20T21:12:06.806Z,-23607.13
2022-10-20T21:14:10.416Z,-23607.44
2022-10-20T21:16:15.173Z,-23604.28
2022-10-20T21:18:17.756Z,-23604.28
2022-10-20T21:20:20.359Z,-23611.22
2022-10-20T21:22:24.301Z,-23611.22
2022-10-20T21:24:27.415Z,-23608.56
2022-10-20T21:26:30.636Z,-23605.06
2022-10-20T21:28:33.335Z,-23605.22
2022-10-20T21:30:35.959Z,-23607.91
2022-10-20T21:32:38.954Z,-23602.69
2022-10-20T21:34:41.806Z,-23603.03
2022-10-20T21:36:44.384Z,-23598.91
2022-10-20T21:38:48.722Z,-23597.97
2022-10-20T21:40:51.315Z,-23596.69
2022-10-20T21:42:53.985Z,-23600.81
2022-10-20T21:44:56.544Z,-23595.28
2022-10-20T21:46:59.161Z,-23596.38
2022-10-20T21:49:03.571Z,-23595.59
2022-10-20T21:51:10.539Z,-23595.13
2022-10-20T21:53:13.110Z,-23597.34
2022-10-20T21:55:17.136Z,-23593.38
2022-10-20T21:57:19.726Z,-23592.91
2022-10-20T21:59:24.698Z,-23593.53
2022-10-20T22:01:27.371Z,-23592.28
2022-10-20T22:03:30.013Z,-23593.53
2022-10-20T22:05:32.626Z,-23593.69
2022-10-20T22:07:35.640Z,-23593.53
2022-10-20T22:09:38.489Z,-23596.06
2022-10-20T22:11:45.076Z,-23596.06
2022-10-20T22:13:47.939Z,-23606.50
2022-10-20T22:15:50.531Z,-23598.28
2022-10-20T22:17:53.146Z,-23593.38
2022-10-20T22:19:55.800Z,-23591.34
2022-10-20T22:21:59.353Z,-23591.50
2022-10-20T22:24:01.974Z,-23596.38
2022-10-20T22:26:05.529Z,-23595.13
2022-10-20T22:28:09.827Z,-23593.22
2022-10-20T22:30:13.024Z,-23594.50
2022-10-20T22:32:15.632Z,-23597.66
2022-10-20T22:34:18.291Z,-23593.53
2022-10-20T22:36:21.641Z,-23594.97
2022-10-20T22:38:24.272Z,-23592.59
2022-10-20T22:40:27.015Z,-23594.81
2022-10-20T22:42:29.620Z,-23590.53
2022-10-20T22:44:33.628Z,-23588.50
2022-10-20T22:46:36.262Z,-23590.38
2022-10-20T22:48:39.235Z,-23585.00
2022-10-20T22:50:42.814Z,-23585.00
2022-10-20T22:52:45.852Z,-23583.44
2022-10-20T22:54:48.457Z,-23585.97
2022-10-20T22:56:51.913Z,-23585.31
2022-10-20T22:58:55.044Z,-23586.59
2022-10-20T23:00:59.079Z,-23584.06
2022-10-20T23:03:01.839Z,-23583.28
2022-10-20T23:05:04.735Z,-23582.16
2022-10-20T23:07:07.398Z,-23583.91
2022-10-20T23:09:11.026Z,-23581.53
2022-10-20T23:11:15.000Z,-23581.22
2022-10-20T23:13:17.666Z,-23579.63
2022-10-20T23:15:20.336Z,-23580.28
2022-10-20T23:17:24.616Z,-23580.59
2022-10-20T23:19:27.213Z,-23585.31
2022-10-20T23:21:29.812Z,-23582.16
2022-10-20T23:23:32.865Z,-23582.63
2022-10-20T23:27:43.055Z,-23581.06
2022-10-20T23:29:45.733Z,-23579.00
2022-10-20T23:31:48.397Z,-23579.31
2022-10-20T23:33:55.971Z,-23579.63
2022-10-20T23:35:58.536Z,-23577.56
2022-10-20T23:38:01.126Z,-23577.56
2022-10-20T23:40:03.766Z,-23578.38
2022-10-20T23:42:07.316Z,-23577.41
2022-10-20T23:44:10.197Z,-23572.69
2022-10-20T23:46:13.302Z,-23570.78
2022-10-20T23:48:15.859Z,-23572.84
2022-10-20T23:50:21.121Z,-23573.94
2022-10-20T23:52:23.713Z,-23571.88
2022-10-20T23:54:26.313Z,-23572.03
2022-10-20T23:56:29.021Z,-23571.72
2022-10-20T23:58:31.623Z,-23573.63
